createdAt,value
2022-10-11T00:01:01.617Z,101698.63
2022-10-11T00:03:44.191Z,101701.94
2022-10-11T00:06:24.199Z,101664.34
2022-10-11T00:09:04.166Z,101685.28
2022-10-11T00:11:44.480Z,101702.41
2022-10-11T00:14:24.470Z,101710.00
2022-10-11T00:17:04.417Z,101700.28
2022-10-11T00:19:46.953Z,101683.72
2022-10-11T00:22:26.920Z,101717.28
2022-10-11T00:25:08.693Z,101726.47
2022-10-11T00:27:48.704Z,101708.75
2022-10-11T00:30:28.686Z,101708.28
2022-10-11T00:33:08.601Z,101717.78
2022-10-11T00:35:51.416Z,101726.06
2022-10-11T00:38:32.175Z,101736.34
2022-10-11T00:41:12.257Z,101735.31
2022-10-11T00:44:11.571Z,101724.63
2022-10-11T00:46:56.618Z,101702.91
2022-10-11T00:49:39.591Z,101719.19
2022-10-11T00:52:31.208Z,101735.59
2022-10-11T00:55:15.162Z,101724.81
2022-10-11T00:57:56.316Z,101738.94
2022-10-11T01:00:36.602Z,101755.38
2022-10-11T01:03:16.706Z,101754.41
2022-10-11T01:05:57.746Z,101752.63
2022-10-11T01:08:41.501Z,101744.13
2022-10-11T01:11:25.995Z,101740.56
2022-10-11T01:14:37.020Z,101744.78
2022-10-11T01:17:25.401Z,101736.72
2022-10-11T01:20:37.650Z,101694.25
2022-10-11T01:24:08.973Z,101732.19
2022-10-11T01:27:26.019Z,101753.41
2022-10-11T01:30:24.080Z,101757.00
2022-10-11T01:33:15.817Z,101763.59
2022-10-11T01:36:05.142Z,101773.34
2022-10-11T01:38:49.678Z,101751.53
2022-10-11T01:41:33.710Z,101776.88
2022-10-11T01:44:16.939Z,101770.13
2022-10-11T01:46:59.450Z,101764.09
2022-10-11T01:49:39.424Z,101728.97
2022-10-11T01:52:19.350Z,101774.09
2022-10-11T01:55:16.116Z,101777.75
2022-10-11T01:58:09.620Z,101781.56
2022-10-11T02:00:56.030Z,101772.81
2022-10-11T02:03:44.695Z,101779.84
2022-10-11T02:06:31.790Z,101756.25
2022-10-11T02:09:17.830Z,101783.91
2022-10-11T02:12:03.429Z,101770.63
2022-10-11T02:14:47.999Z,101787.06
2022-10-11T02:17:33.558Z,101788.31
2022-10-11T02:20:22.210Z,101793.91
2022-10-11T02:23:08.434Z,101797.84
2022-10-11T02:25:50.100Z,101805.25
2022-10-11T02:28:34.723Z,101800.47
2022-10-11T02:31:15.767Z,101766.88
2022-10-11T02:34:02.888Z,101790.63
2022-10-11T02:36:52.746Z,101780.44
2022-10-11T02:39:38.319Z,101800.47
2022-10-11T02:42:23.402Z,101794.44
2022-10-11T02:45:07.902Z,101774.13
2022-10-11T02:47:48.490Z,101753.13
2022-10-11T02:50:29.807Z,101776.06
2022-10-11T02:53:12.399Z,101802.22
2022-10-11T02:55:54.217Z,101798.91
2022-10-11T02:58:34.130Z,101740.59
2022-10-11T03:01:14.155Z,101785.75
2022-10-11T03:03:54.120Z,101802.34
2022-10-11T03:06:34.247Z,101792.44
2022-10-11T03:09:16.809Z,101802.72
2022-10-11T03:11:56.780Z,101809.38
2022-10-11T03:14:40.450Z,101814.66
2022-10-11T03:17:35.649Z,101816.66
2022-10-11T03:20:16.759Z,101825.69
2022-10-11T03:22:56.702Z,101830.53
2022-10-11T03:25:39.467Z,101817.53
2022-10-11T03:28:19.644Z,101815.78
2022-10-11T03:30:59.959Z,101796.81
2022-10-11T03:33:39.939Z,101850.03
2022-10-11T03:36:20.311Z,101850.06
2022-10-11T03:39:00.266Z,101842.31
2022-10-11T03:41:42.774Z,101835.75
2022-10-11T03:44:22.887Z,101821.56
2022-10-11T03:47:02.878Z,101852.69
2022-10-11T03:49:43.899Z,101824.63
2022-10-11T03:52:24.022Z,101839.41
2022-10-11T03:55:04.143Z,101836.78
2022-10-11T03:57:46.729Z,101868.66
2022-10-11T04:00:26.776Z,101860.66
2022-10-11T04:03:06.844Z,101849.59
2022-10-11T04:05:46.794Z,101865.81
2022-10-11T04:08:41.544Z,101879.00
2022-10-11T04:11:21.487Z,101886.94
2022-10-11T04:14:04.149Z,101882.19
2022-10-11T04:16:44.130Z,101882.56
2022-10-11T04:19:24.101Z,101876.91
2022-10-11T04:22:04.083Z,101896.47
2022-10-11T04:24:44.008Z,101890.88
2022-10-11T04:27:24.014Z,101880.19
2022-10-11T04:30:07.347Z,101898.13
2022-10-11T04:32:47.817Z,101907.66
2022-10-11T04:35:27.839Z,101901.97
2022-10-11T04:38:07.803Z,101905.19
2022-10-11T04:40:47.785Z,101902.22
2022-10-11T04:43:27.800Z,101908.19
2022-10-11T04:46:11.683Z,101904.84
2022-10-11T04:48:51.981Z,101889.50
2022-10-11T04:51:33.771Z,101878.88
2022-10-11T04:54:13.721Z,101862.75
2022-10-11T04:56:53.736Z,101907.16
2022-10-11T04:59:33.890Z,101899.38
2022-10-11T05:02:16.507Z,101922.56
2022-10-11T05:04:56.514Z,101912.03
2022-10-11T05:07:36.549Z,101898.28
2022-10-11T05:10:17.745Z,101922.19
2022-10-11T05:12:57.733Z,101923.66
2022-10-11T05:15:38.865Z,101934.00
2022-10-11T05:18:22.848Z,101927.16
2022-10-11T05:21:05.543Z,101937.56
2022-10-11T05:23:46.557Z,101925.97
2022-10-11T05:26:27.975Z,101938.84
2022-10-11T05:29:08.990Z,101924.34
2022-10-11T05:31:49.114Z,101910.19
2022-10-11T05:34:31.789Z,101960.66
2022-10-11T05:37:12.717Z,101925.75
2022-10-11T05:39:53.996Z,101958.09
2022-10-11T05:42:33.999Z,101956.47
2022-10-11T05:45:14.051Z,101967.69
2022-10-11T05:47:54.254Z,101968.81
2022-10-11T05:50:38.398Z,101951.78
2022-10-11T05:53:19.447Z,101939.56
2022-10-11T05:56:00.200Z,101967.69
2022-10-11T05:58:42.210Z,101977.38
2022-10-11T06:01:23.905Z,101980.94
2022-10-11T06:04:04.900Z,101955.63
2022-10-11T06:06:51.787Z,101982.91
2022-10-11T06:09:34.833Z,101984.41
2022-10-11T06:12:15.927Z,101991.44
2022-10-11T06:14:56.005Z,101992.44
2022-10-11T06:17:37.218Z,101983.84
2022-10-11T06:20:18.679Z,101996.97
2022-10-11T06:23:01.402Z,101999.19
2022-10-11T06:25:41.463Z,101972.06
2022-10-11T06:28:21.575Z,101992.56
2022-10-11T06:31:01.724Z,102004.66
2022-10-11T06:33:42.918Z,101994.84
2022-10-11T06:36:23.104Z,101999.19
2022-10-11T06:39:06.381Z,101994.63
2022-10-11T06:41:47.754Z,102001.03
2022-10-11T06:44:28.404Z,102016.91
2022-10-11T06:47:08.583Z,102021.69
2022-10-11T06:49:48.828Z,102028.09
2022-10-11T06:52:29.912Z,102016.63
2022-10-11T06:55:13.064Z,102021.84
2022-10-11T06:57:54.127Z,102033.19
2022-10-11T07:00:34.232Z,102025.63
2022-10-11T07:03:15.319Z,102026.75
2022-10-11T07:05:57.914Z,102037.28
2022-10-11T07:08:42.096Z,102047.25
2022-10-11T07:11:28.395Z,102038.44
2022-10-11T07:14:09.549Z,102043.84
2022-10-11T07:16:49.637Z,102029.72
2022-10-11T07:19:29.920Z,102065.69
2022-10-11T07:22:11.395Z,102044.81
2022-10-11T07:24:51.505Z,102062.34
2022-10-11T07:27:35.228Z,102062.38
2022-10-11T07:30:16.494Z,102049.91
2022-10-11T07:32:56.680Z,102050.31
2022-10-11T07:35:38.443Z,102076.69
2022-10-11T07:38:20.092Z,102074.66
2022-10-11T07:41:00.266Z,102069.72
2022-10-11T07:43:47.092Z,102084.75
2022-10-11T07:46:27.254Z,102059.63
2022-10-11T07:49:08.328Z,102075.69
2022-10-11T07:51:49.439Z,102063.69
2022-10-11T07:54:30.536Z,102077.19
2022-10-11T07:57:10.582Z,102082.16
2022-10-11T07:59:54.180Z,102080.88
2022-10-11T08:02:34.314Z,102077.66
2022-10-11T08:05:15.514Z,102091.16
2022-10-11T08:07:56.575Z,102095.50
2022-10-11T08:10:40.789Z,102084.41
2022-10-11T08:13:21.918Z,102088.84
2022-10-11T08:16:12.904Z,102078.16
2022-10-11T08:18:54.436Z,102089.44
2022-10-11T08:21:35.092Z,102080.31
2022-10-11T08:24:20.704Z,102079.91
2022-10-11T08:27:01.816Z,102098.41
2022-10-11T08:29:42.001Z,102101.44
2022-10-11T08:32:24.576Z,102098.56
2022-10-11T08:35:04.664Z,102103.84
2022-10-11T08:37:45.681Z,102105.16
2022-10-11T08:40:30.461Z,102091.91
2022-10-11T08:43:21.908Z,102092.84
2022-10-11T08:46:05.275Z,102054.00
2022-10-11T08:48:52.037Z,102105.47
2022-10-11T08:51:36.363Z,102113.38
2022-10-11T08:54:14.400Z,102111.31
2022-10-11T08:56:44.645Z,102103.81
2022-10-11T08:59:29.303Z,102121.50
2022-10-11T09:02:05.393Z,102092.94
2022-10-11T09:04:39.076Z,102112.47
2022-10-11T09:07:21.864Z,102114.28
2022-10-11T09:10:16.876Z,102107.31
2022-10-11T09:12:56.402Z,102100.56
2022-10-11T09:15:35.376Z,102108.78
2022-10-11T09:18:24.802Z,102090.84
2022-10-11T09:21:27.769Z,102062.94
2022-10-11T09:24:20.086Z,102089.72
2022-10-11T09:26:57.812Z,102092.31
2022-10-11T09:29:48.822Z,102100.50
2022-10-11T09:32:23.570Z,102107.81
2022-10-11T09:35:02.480Z,102112.31
2022-10-11T09:37:45.121Z,102101.34
2022-10-11T09:40:31.122Z,102110.59
2022-10-11T09:43:02.904Z,102120.84
2022-10-11T09:45:36.538Z,102094.50
2022-10-11T09:48:10.077Z,102082.56
2022-10-11T09:50:42.025Z,102093.16
2022-10-11T09:53:16.674Z,102095.47
2022-10-11T09:55:53.883Z,102101.00
2022-10-11T09:58:32.793Z,102109.03
2022-10-11T10:01:08.194Z,102106.75
2022-10-11T10:03:40.202Z,102100.13
2022-10-11T10:06:13.391Z,102097.63
2022-10-11T10:08:48.175Z,102112.66
2022-10-11T10:11:22.647Z,102113.47
2022-10-11T10:13:56.052Z,102113.97
2022-10-11T10:16:28.905Z,102093.50
2022-10-11T10:19:03.513Z,102102.44
2022-10-11T10:21:38.115Z,102091.59
2022-10-11T10:24:21.113Z,102113.53
2022-10-11T10:27:10.761Z,102101.22
2022-10-11T10:29:40.813Z,102107.38
2022-10-11T10:32:15.507Z,102108.56
2022-10-11T10:34:59.423Z,102071.28
2022-10-11T10:37:36.536Z,102112.13
2022-10-11T10:40:16.829Z,102117.56
2022-10-11T10:42:47.719Z,102125.00
2022-10-11T10:45:21.814Z,102078.34
2022-10-11T10:48:08.342Z,102108.69
2022-10-11T10:50:54.600Z,102116.63
2022-10-11T10:53:31.674Z,102112.31
2022-10-11T10:56:11.261Z,102082.84
2022-10-11T10:59:05.457Z,102100.13
2022-10-11T11:01:53.813Z,102100.00
2022-10-11T11:04:32.099Z,102124.38
2022-10-11T11:07:12.020Z,102103.03
2022-10-11T11:09:48.394Z,102086.28
2022-10-11T11:12:30.636Z,102067.09
2022-10-11T11:15:09.322Z,102097.66
2022-10-11T11:17:56.796Z,102096.84
2022-10-11T11:20:41.743Z,102113.56
2022-10-11T11:23:21.094Z,102093.72
2022-10-11T11:26:02.814Z,102113.81
2022-10-11T11:28:54.617Z,102112.09
2022-10-11T11:31:49.880Z,102096.56
2022-10-11T11:34:26.488Z,102106.13
2022-10-11T11:37:02.924Z,102107.06
2022-10-11T11:39:38.661Z,102083.59
2022-10-11T11:42:14.304Z,102088.03
2022-10-11T11:44:50.355Z,102109.03
2022-10-11T11:47:27.656Z,102106.44
2022-10-11T11:50:05.629Z,102100.53
2022-10-11T11:52:44.384Z,102106.66
2022-10-11T11:55:23.190Z,102093.28
2022-10-11T11:58:06.941Z,102074.84
2022-10-11T12:00:51.917Z,102105.34
2022-10-11T12:03:27.414Z,102098.63
2022-10-11T12:06:28.806Z,102096.06
2022-10-11T12:09:09.818Z,102088.84
2022-10-11T12:11:52.394Z,102078.47
2022-10-11T12:14:33.069Z,102102.59
2022-10-11T12:17:25.520Z,102101.88
2022-10-11T12:20:29.271Z,102099.59
2022-10-11T12:23:03.128Z,102085.97
2022-10-11T12:25:43.361Z,102091.59
2022-10-11T12:28:49.009Z,102083.00
2022-10-11T12:31:26.539Z,102085.63
2022-10-11T12:34:25.442Z,102066.34
2022-10-11T12:37:04.440Z,102057.81
2022-10-11T12:39:56.255Z,102086.69
2022-10-11T12:42:32.024Z,102087.81
2022-10-11T12:45:33.129Z,102080.97
2022-10-11T12:48:22.928Z,102080.91
2022-10-11T12:51:07.687Z,102081.84
2022-10-11T12:54:27.580Z,102068.97
2022-10-11T12:57:20.551Z,102062.81
2022-10-11T12:59:50.351Z,102039.53
2022-10-11T13:02:30.285Z,102072.06
2022-10-11T13:05:10.750Z,102074.94
2022-10-11T13:07:45.224Z,102057.53
2022-10-11T13:10:18.405Z,102066.34
2022-10-11T13:12:50.660Z,102068.31
2022-10-11T13:15:24.354Z,102059.59
2022-10-11T13:18:00.432Z,102052.75
2022-10-11T13:20:35.249Z,102066.53
2022-10-11T13:23:25.679Z,102058.06
2022-10-11T13:25:58.947Z,102074.47
2022-10-11T13:28:36.516Z,102066.69
2022-10-11T13:31:07.059Z,102068.41
2022-10-11T13:33:43.622Z,102068.44
2022-10-11T13:36:18.549Z,102061.50
2022-10-11T13:39:01.837Z,102065.81
2022-10-11T13:41:35.196Z,102046.72
2022-10-11T13:44:07.982Z,102056.53
2022-10-11T13:46:41.934Z,102064.41
2022-10-11T13:49:31.528Z,102056.66
2022-10-11T13:52:02.690Z,102054.06
2022-10-11T13:55:00.392Z,102059.41
2022-10-11T13:57:39.342Z,102042.81
2022-10-11T14:00:23.482Z,102047.81
2022-10-11T14:03:00.934Z,102043.44
2022-10-11T14:05:35.165Z,102026.81
2022-10-11T14:08:10.282Z,102058.22
2022-10-11T14:10:51.675Z,102047.09
2022-10-11T14:13:27.974Z,102053.91
2022-10-11T14:16:07.558Z,102026.03
2022-10-11T14:18:47.599Z,102041.56
2022-10-11T14:21:37.930Z,102035.41
2022-10-11T14:24:10.633Z,102045.28
2022-10-11T14:26:46.070Z,102052.13
2022-10-11T14:29:20.674Z,102048.66
2022-10-11T14:31:52.679Z,102052.94
2022-10-11T14:34:25.876Z,102048.88
2022-10-11T14:36:56.770Z,102041.78
2022-10-11T14:39:28.438Z,102034.88
2022-10-11T14:42:03.727Z,102039.00
2022-10-11T14:44:34.446Z,102050.38
2022-10-11T14:47:06.679Z,102047.00
2022-10-11T14:49:39.828Z,102036.63
2022-10-11T14:52:14.602Z,102035.22
2022-10-11T14:54:45.377Z,102045.41
2022-10-11T14:57:17.658Z,102049.63
2022-10-11T14:59:47.450Z,102022.59
2022-10-11T15:02:22.443Z,102024.34
2022-10-11T15:04:52.159Z,101978.06
2022-10-11T15:07:25.421Z,102044.97
2022-10-11T15:09:56.119Z,102030.09
2022-10-11T15:12:29.454Z,102043.19
2022-10-11T15:14:59.210Z,102027.50
2022-10-11T15:17:31.023Z,102016.13
2022-10-11T15:20:00.828Z,102042.97
2022-10-11T15:22:34.412Z,102038.69
2022-10-11T15:25:05.300Z,102038.63
2022-10-11T15:27:38.584Z,102022.03
2022-10-11T15:30:15.436Z,102034.25
2022-10-11T15:32:49.301Z,102042.94
2022-10-11T15:35:20.247Z,102036.81
2022-10-11T15:37:50.134Z,102009.81
2022-10-11T15:40:22.237Z,102026.31
2022-10-11T15:42:56.136Z,102030.53
2022-10-11T15:45:29.752Z,102030.41
2022-10-11T15:48:02.072Z,102040.69
2022-10-11T15:50:39.564Z,102039.84
2022-10-11T15:53:14.584Z,102049.41
2022-10-11T15:55:46.383Z,102053.63
2022-10-11T15:58:23.878Z,102029.44
2022-10-11T16:00:57.038Z,102040.69
2022-10-11T16:03:29.650Z,102045.88
2022-10-11T16:06:04.856Z,102049.88
2022-10-11T16:08:35.224Z,102044.31
2022-10-11T16:11:07.001Z,102035.38
2022-10-11T16:13:41.402Z,102050.03
2022-10-11T16:16:12.443Z,102048.09
2022-10-11T16:18:43.351Z,102044.59
2022-10-11T16:21:17.879Z,102041.31
2022-10-11T16:23:51.470Z,102051.50
2022-10-11T16:26:22.216Z,102055.69
2022-10-11T16:28:56.761Z,102052.25
2022-10-11T16:31:26.598Z,102045.06
2022-10-11T16:33:58.337Z,102056.09
2022-10-11T16:36:36.427Z,102063.69
2022-10-11T16:39:09.814Z,102060.09
2022-10-11T16:41:44.520Z,102048.63
2022-10-11T16:44:24.938Z,102064.16
2022-10-11T16:46:55.838Z,102038.78
2022-10-11T16:49:28.961Z,102054.25
2022-10-11T16:52:02.329Z,102066.97
2022-10-11T16:54:32.933Z,102052.03
2022-10-11T16:57:03.634Z,102057.94
2022-10-11T16:59:39.380Z,102056.13
2022-10-11T17:02:18.390Z,102042.75
2022-10-11T17:04:50.665Z,102051.16
2022-10-11T17:07:22.128Z,102060.41
2022-10-11T17:09:52.774Z,102043.72
2022-10-11T17:12:27.394Z,102037.44
2022-10-11T17:15:00.756Z,102058.91
2022-10-11T17:17:32.450Z,102035.75
2022-10-11T17:20:04.981Z,102059.84
2022-10-11T17:22:34.756Z,102043.78
2022-10-11T17:25:05.491Z,102049.75
2022-10-11T17:27:38.588Z,102041.16
2022-10-11T17:30:12.935Z,102058.50
2022-10-11T17:32:43.102Z,102063.28
2022-10-11T17:35:13.852Z,102069.44
2022-10-11T17:37:47.490Z,102074.47
2022-10-11T17:40:18.586Z,102002.97
2022-10-11T17:42:48.280Z,102057.47
2022-10-11T17:45:21.376Z,102074.59
2022-10-11T17:47:52.179Z,102071.94
2022-10-11T17:50:25.484Z,102071.81
2022-10-11T17:52:56.545Z,102064.88
2022-10-11T17:55:26.519Z,102064.59
2022-10-11T17:57:56.227Z,102049.66
2022-10-11T18:00:29.561Z,102066.19
2022-10-11T18:02:59.339Z,102069.28
2022-10-11T18:05:30.064Z,102027.22
2022-10-11T18:08:03.539Z,102056.75
2022-10-11T18:10:35.537Z,102064.50
2022-10-11T18:13:12.037Z,102053.81
2022-10-11T18:15:53.387Z,102066.03
2022-10-11T18:18:23.481Z,102056.84
2022-10-11T18:20:57.539Z,102057.56
2022-10-11T18:23:29.345Z,102059.13
2022-10-11T18:26:00.993Z,102063.41
2022-10-11T18:28:31.866Z,102047.38
2022-10-11T18:31:13.018Z,102051.72
2022-10-11T18:33:45.600Z,102035.66
2022-10-11T18:36:18.342Z,102064.34
2022-10-11T18:38:49.445Z,102056.28
2022-10-11T18:41:21.728Z,102059.69
2022-10-11T18:44:03.230Z,102063.13
2022-10-11T18:46:39.346Z,102062.16
2022-10-11T18:49:11.417Z,102064.59
2022-10-11T18:51:44.534Z,102063.78
2022-10-11T18:54:18.372Z,102071.13
2022-10-11T18:56:51.149Z,102063.13
2022-10-11T18:59:22.062Z,102041.13
2022-10-11T19:01:56.521Z,102058.50
2022-10-11T19:04:29.496Z,102047.13
2022-10-11T19:07:00.218Z,102022.59
2022-10-11T19:09:31.946Z,102064.00
2022-10-11T19:12:01.680Z,102066.97
2022-10-11T19:14:33.145Z,102062.56
2022-10-11T19:17:06.581Z,102057.97
2022-10-11T19:19:37.718Z,102030.72
2022-10-11T19:22:08.485Z,102057.50
2022-10-11T19:24:43.700Z,102048.72
2022-10-11T19:27:14.629Z,102060.81
2022-10-11T19:29:47.558Z,102052.91
2022-10-11T19:32:20.920Z,102052.09
2022-10-11T19:34:53.350Z,102055.22
2022-10-11T19:37:26.658Z,102049.16
2022-10-11T19:39:56.429Z,102011.19
2022-10-11T19:42:28.217Z,102057.59
2022-10-11T19:45:01.504Z,102048.97
2022-10-11T19:47:35.846Z,102047.00
2022-10-11T19:50:05.675Z,102045.91
2022-10-11T19:52:35.453Z,102017.81
2022-10-11T19:55:07.773Z,102017.81
2022-10-11T19:57:38.547Z,102032.50
2022-10-11T20:00:12.362Z,102037.00
2022-10-11T20:02:48.175Z,102046.13
2022-10-11T20:05:18.204Z,102046.66
2022-10-11T20:07:47.929Z,102051.75
2022-10-11T20:10:19.915Z,102044.81
2022-10-11T20:12:50.708Z,102026.91
2022-10-11T20:15:25.778Z,102040.84
2022-10-11T20:18:00.575Z,102032.00
2022-10-11T20:20:33.490Z,102049.41
2022-10-11T20:23:05.269Z,102035.25
2022-10-11T20:25:38.551Z,102044.50
2022-10-11T20:28:08.410Z,102049.97
2022-10-11T20:30:44.489Z,102038.88
2022-10-11T20:33:23.122Z,102055.19
2022-10-11T20:36:01.271Z,102032.97
2022-10-11T20:38:34.835Z,102046.78
2022-10-11T20:41:08.232Z,102045.84
2022-10-11T20:43:38.239Z,102047.56
2022-10-11T20:46:10.801Z,102006.66
2022-10-11T20:48:44.599Z,102055.69
2022-10-11T20:51:18.036Z,102054.91
2022-10-11T20:53:52.387Z,102037.25
2022-10-11T20:56:26.798Z,102056.91
2022-10-11T20:59:02.892Z,102052.06
2022-10-11T21:01:40.852Z,102048.44
2022-10-11T21:04:19.363Z,102053.88
2022-10-11T21:06:52.691Z,102043.19
2022-10-11T21:09:23.926Z,102042.94
2022-10-11T21:11:54.771Z,102043.66
2022-10-11T21:14:25.696Z,102002.06
2022-10-11T21:16:56.527Z,102057.41
2022-10-11T21:19:29.025Z,102054.34
2022-10-11T21:21:58.731Z,102052.13
2022-10-11T21:24:28.536Z,102053.94
2022-10-11T21:27:00.645Z,102035.78
2022-10-11T21:29:30.799Z,102057.28
2022-10-11T21:32:00.647Z,102057.16
2022-10-11T21:34:33.055Z,102053.94
2022-10-11T21:37:02.751Z,102050.22
2022-10-11T21:39:32.580Z,102050.72
2022-10-11T21:42:02.244Z,102055.16
2022-10-11T21:44:33.051Z,102039.56
2022-10-11T21:47:07.023Z,102048.47
2022-10-11T21:49:39.893Z,102046.13
2022-10-11T21:52:09.628Z,102046.28
2022-10-11T21:54:39.461Z,102043.22
2022-10-11T21:57:09.134Z,102036.31
2022-10-11T21:59:38.814Z,102058.63
2022-10-11T22:02:08.502Z,102057.94
2022-10-11T22:04:40.792Z,102057.63
2022-10-11T22:07:10.506Z,102058.84
2022-10-11T22:09:40.200Z,102061.13
2022-10-11T22:12:10.357Z,102043.56
2022-10-11T22:14:40.070Z,102009.63
2022-10-11T22:17:09.783Z,102036.16
2022-10-11T22:19:42.105Z,102039.94
2022-10-11T22:22:11.852Z,102051.78
2022-10-11T22:24:41.531Z,102050.47
2022-10-11T22:27:11.203Z,102042.44
2022-10-11T22:29:40.934Z,102039.81
2022-10-11T22:32:10.587Z,102043.72
2022-10-11T22:34:43.153Z,102037.66
2022-10-11T22:37:12.802Z,102032.75
2022-10-11T22:39:42.509Z,101981.56
2022-10-11T22:42:12.237Z,102032.41
2022-10-11T22:44:42.002Z,102042.78
2022-10-11T22:47:11.671Z,102048.28
2022-10-11T22:49:44.076Z,102045.56
2022-10-11T22:52:13.791Z,102049.94
2022-10-11T22:54:43.495Z,102048.41
2022-10-11T22:57:13.355Z,102040.56
2022-10-11T22:59:43.123Z,102007.31
2022-10-11T23:02:13.018Z,102040.13
2022-10-11T23:04:45.398Z,102055.41
2022-10-11T23:07:15.177Z,102054.13
2022-10-11T23:09:44.908Z,102052.44
2022-10-11T23:12:14.571Z,102046.41
2022-10-11T23:14:44.266Z,102041.63
2022-10-11T23:17:13.939Z,102043.94
2022-10-11T23:19:46.269Z,102053.78
2022-10-11T23:22:16.003Z,102050.78
2022-10-11T23:24:45.723Z,102046.66
2022-10-11T23:27:15.390Z,102052.53
2022-10-11T23:29:45.113Z,102049.75
2022-10-11T23:32:14.864Z,102046.03
2022-10-11T23:34:47.176Z,102041.91
2022-10-11T23:37:16.848Z,102037.28
2022-10-11T23:39:46.765Z,102047.38
2022-10-11T23:42:16.549Z,102051.81
2022-10-11T23:44:46.293Z,102035.13
2022-10-11T23:47:16.015Z,102020.38
2022-10-11T23:49:48.415Z,102046.66
2022-10-11T23:52:18.133Z,102041.91
2022-10-11T23:54:47.887Z,102059.28
2022-10-11T23:57:17.598Z,102047.84
2022-10-11T23:59:47.293Z,102055.72
